sensor_id;sensor_type;location;lat;lon;timestamp;P1;durP1;ratioP1;P2;durP2;ratioP2
21148;SDS011;10732;51.472;6.466;2024-03-06T00:00:04;38.05;;;29.08;;
21148;SDS011;10732;51.472;6.466;2024-03-06T00:02:33;41.75;;;30.92;;
21148;SDS011;10732;51.472;6.466;2024-03-06T00:05:00;43.88;;;32.30;;
21148;SDS011;10732;51.472;6.466;2024-03-06T00:07:25;44.00;;;31.50;;
21148;SDS011;10732;51.472;6.466;2024-03-06T00:09:51;43.58;;;33.20;;
21148;SDS011;10732;51.472;6.466;2024-03-06T00:12:18;45.90;;;34.00;;
21148;SDS011;10732;51.472;6.466;2024-03-06T00:14:43;45.40;;;33.70;;
21148;SDS011;10732;51.472;6.466;2024-03-06T00:17:09;52.08;;;36.45;;
21148;SDS011;10732;51.472;6.466;2024-03-06T00:19:35;49.55;;;34.47;;
21148;SDS011;10732;51.472;6.466;2024-03-06T00:22:00;49.28;;;33.92;;
21148;SDS011;10732;51.472;6.466;2024-03-06T00:24:27;48.63;;;34.42;;
21148;SDS011;10732;51.472;6.466;2024-03-06T00:26:53;47.38;;;34.40;;
21148;SDS011;10732;51.472;6.466;2024-03-06T00:29:18;50.25;;;35.90;;
21148;SDS011;10732;51.472;6.466;2024-03-06T00:31:45;54.30;;;37.10;;
21148;SDS011;10732;51.472;6.466;2024-03-06T00:34:11;58.40;;;39.17;;
21148;SDS011;10732;51.472;6.466;2024-03-06T00:36:42;54.97;;;37.97;;
21148;SDS011;10732;51.472;6.466;2024-03-06T00:39:08;56.33;;;37.50;;
21148;SDS011;10732;51.472;6.466;2024-03-06T00:41:35;52.33;;;36.90;;
21148;SDS011;10732;51.472;6.466;2024-03-06T00:44:01;50.20;;;35.67;;
21148;SDS011;10732;51.472;6.466;2024-03-06T00:46:27;49.03;;;34.45;;
21148;SDS011;10732;51.472;6.466;2024-03-06T00:48:52;52.17;;;35.25;;
21148;SDS011;10732;51.472;6.466;2024-03-06T00:51:18;47.78;;;34.20;;
21148;SDS011;10732;51.472;6.466;2024-03-06T00:53:44;48.20;;;35.17;;
21148;SDS011;10732;51.472;6.466;2024-03-06T00:56:09;48.85;;;33.65;;
21148;SDS011;10732;51.472;6.466;2024-03-06T00:58:35;51.85;;;34.63;;
21148;SDS011;10732;51.472;6.466;2024-03-06T01:01:01;49.60;;;33.90;;
21148;SDS011;10732;51.472;6.466;2024-03-06T01:03:27;51.70;;;36.47;;
21148;SDS011;10732;51.472;6.466;2024-03-06T01:05:53;51.78;;;37.17;;
21148;SDS011;10732;51.472;6.466;2024-03-06T01:08:18;54.20;;;37.28;;
21148;SDS011;10732;51.472;6.466;2024-03-06T01:10:44;54.22;;;37.00;;
21148;SDS011;10732;51.472;6.466;2024-03-06T01:13:10;53.55;;;37.33;;
21148;SDS011;10732;51.472;6.466;2024-03-06T01:15:39;45.92;;;34.95;;
21148;SDS011;10732;51.472;6.466;2024-03-06T01:18:04;46.13;;;34.45;;
21148;SDS011;10732;51.472;6.466;2024-03-06T01:20:30;48.33;;;34.80;;
21148;SDS011;10732;51.472;6.466;2024-03-06T01:22:56;47.28;;;34.60;;
21148;SDS011;10732;51.472;6.466;2024-03-06T01:25:21;46.97;;;34.13;;
21148;SDS011;10732;51.472;6.466;2024-03-06T01:27:50;50.70;;;35.15;;
21148;SDS011;10732;51.472;6.466;2024-03-06T01:30:15;47.60;;;34.65;;
21148;SDS011;10732;51.472;6.466;2024-03-06T01:32:41;48.20;;;34.03;;
21148;SDS011;10732;51.472;6.466;2024-03-06T01:35:06;50.80;;;35.38;;
21148;SDS011;10732;51.472;6.466;2024-03-06T01:37:32;45.63;;;34.95;;
21148;SDS011;10732;51.472;6.466;2024-03-06T01:39:58;45.70;;;34.40;;
21148;SDS011;10732;51.472;6.466;2024-03-06T01:42:23;50.75;;;35.03;;
21148;SDS011;10732;51.472;6.466;2024-03-06T01:44:49;45.85;;;33.95;;
21148;SDS011;10732;51.472;6.466;2024-03-06T01:47:15;44.67;;;32.28;;
21148;SDS011;10732;51.472;6.466;2024-03-06T01:49:40;45.58;;;32.90;;
21148;SDS011;10732;51.472;6.466;2024-03-06T01:52:07;46.88;;;32.58;;
21148;SDS011;10732;51.472;6.466;2024-03-06T01:54:35;47.88;;;33.83;;
21148;SDS011;10732;51.472;6.466;2024-03-06T01:57:01;53.65;;;33.65;;
21148;SDS011;10732;51.472;6.466;2024-03-06T01:59:28;49.88;;;34.42;;
21148;SDS011;10732;51.472;6.466;2024-03-06T02:01:54;47.85;;;34.35;;
21148;SDS011;10732;51.472;6.466;2024-03-06T02:04:20;50.17;;;34.42;;
21148;SDS011;10732;51.472;6.466;2024-03-06T02:06:47;54.95;;;35.95;;
21148;SDS011;10732;51.472;6.466;2024-03-06T02:09:12;46.95;;;34.70;;
21148;SDS011;10732;51.472;6.466;2024-03-06T02:11:41;49.53;;;35.25;;
21148;SDS011;10732;51.472;6.466;2024-03-06T02:14:07;49.53;;;34.47;;
21148;SDS011;10732;51.472;6.466;2024-03-06T02:16:35;48.20;;;34.38;;
21148;SDS011;10732;51.472;6.466;2024-03-06T02:19:01;47.35;;;34.83;;
21148;SDS011;10732;51.472;6.466;2024-03-06T02:21:27;50.47;;;35.30;;
21148;SDS011;10732;51.472;6.466;2024-03-06T02:23:52;49.65;;;34.80;;
21148;SDS011;10732;51.472;6.466;2024-03-06T02:26:19;50.97;;;34.30;;
21148;SDS011;10732;51.472;6.466;2024-03-06T02:28:52;48.97;;;33.85;;
21148;SDS011;10732;51.472;6.466;2024-03-06T02:31:19;47.78;;;33.47;;
21148;SDS011;10732;51.472;6.466;2024-03-06T02:33:48;50.35;;;34.58;;
21148;SDS011;10732;51.472;6.466;2024-03-06T02:36:14;56.25;;;36.65;;
21148;SDS011;10732;51.472;6.466;2024-03-06T02:38:41;53.40;;;36.90;;
21148;SDS011;10732;51.472;6.466;2024-03-06T02:41:08;53.75;;;36.15;;
21148;SDS011;10732;51.472;6.466;2024-03-06T02:43:34;55.33;;;34.75;;
21148;SDS011;10732;51.472;6.466;2024-03-06T02:45:59;50.97;;;35.63;;
21148;SDS011;10732;51.472;6.466;2024-03-06T02:48:25;49.92;;;34.58;;
21148;SDS011;10732;51.472;6.466;2024-03-06T02:50:51;54.30;;;35.00;;
21148;SDS011;10732;51.472;6.466;2024-03-06T02:53:17;50.80;;;34.13;;
21148;SDS011;10732;51.472;6.466;2024-03-06T02:55:42;54.17;;;35.63;;
21148;SDS011;10732;51.472;6.466;2024-03-06T02:58:08;47.95;;;33.97;;
21148;SDS011;10732;51.472;6.466;2024-03-06T03:00:34;55.42;;;35.13;;
21148;SDS011;10732;51.472;6.466;2024-03-06T03:02:59;53.70;;;36.22;;
21148;SDS011;10732;51.472;6.466;2024-03-06T03:05:25;51.15;;;34.08;;
21148;SDS011;10732;51.472;6.466;2024-03-06T03:07:50;53.13;;;34.92;;
21148;SDS011;10732;51.472;6.466;2024-03-06T03:10:16;56.45;;;36.55;;
21148;SDS011;10732;51.472;6.466;2024-03-06T03:12:42;58.05;;;35.55;;
21148;SDS011;10732;51.472;6.466;2024-03-06T03:15:08;55.20;;;35.85;;
21148;SDS011;10732;51.472;6.466;2024-03-06T03:17:34;56.25;;;35.83;;
21148;SDS011;10732;51.472;6.466;2024-03-06T03:20:01;55.50;;;35.45;;
21148;SDS011;10732;51.472;6.466;2024-03-06T03:22:39;58.67;;;37.13;;
21148;SDS011;10732;51.472;6.466;2024-03-06T03:25:09;53.15;;;35.20;;
21148;SDS011;10732;51.472;6.466;2024-03-06T03:27:36;52.47;;;35.17;;
21148;SDS011;10732;51.472;6.466;2024-03-06T03:30:03;55.35;;;37.20;;
21148;SDS011;10732;51.472;6.466;2024-03-06T03:32:30;52.70;;;36.15;;
21148;SDS011;10732;51.472;6.466;2024-03-06T03:34:55;51.60;;;34.63;;
21148;SDS011;10732;51.472;6.466;2024-03-06T03:37:21;52.92;;;36.30;;
21148;SDS011;10732;51.472;6.466;2024-03-06T03:39:47;49.55;;;33.63;;
21148;SDS011;10732;51.472;6.466;2024-03-06T03:42:12;54.13;;;34.95;;
21148;SDS011;10732;51.472;6.466;2024-03-06T03:44:38;49.03;;;34.88;;
21148;SDS011;10732;51.472;6.466;2024-03-06T03:47:04;49.00;;;32.78;;
21148;SDS011;10732;51.472;6.466;2024-03-06T03:49:30;55.25;;;37.78;;
21148;SDS011;10732;51.472;6.466;2024-03-06T03:51:56;53.00;;;34.88;;
21148;SDS011;10732;51.472;6.466;2024-03-06T03:54:21;47.95;;;33.03;;
21148;SDS011;10732;51.472;6.466;2024-03-06T03:56:47;52.47;;;35.20;;
21148;SDS011;10732;51.472;6.466;2024-03-06T03:59:13;51.95;;;34.38;;
21148;SDS011;10732;51.472;6.466;2024-03-06T04:01:39;45.58;;;31.70;;
21148;SDS011;10732;51.472;6.466;2024-03-06T04:04:04;45.58;;;32.25;;
21148;SDS011;10732;51.472;6.466;2024-03-06T04:06:32;46.55;;;31.45;;
21148;SDS011;10732;51.472;6.466;2024-03-06T04:08:57;43.05;;;29.88;;
21148;SDS011;10732;51.472;6.466;2024-03-06T04:11:23;51.03;;;32.65;;
21148;SDS011;10732;51.472;6.466;2024-03-06T04:13:48;52.88;;;33.95;;
21148;SDS011;10732;51.472;6.466;2024-03-06T04:16:17;50.03;;;32.05;;
21148;SDS011;10732;51.472;6.466;2024-03-06T04:18:43;43.50;;;31.25;;
21148;SDS011;10732;51.472;6.466;2024-03-06T04:21:10;44.85;;;31.30;;
21148;SDS011;10732;51.472;6.466;2024-03-06T04:23:36;54.60;;;33.13;;
21148;SDS011;10732;51.472;6.466;2024-03-06T04:26:02;56.30;;;33.60;;
21148;SDS011;10732;51.472;6.466;2024-03-06T04:28:28;53.38;;;32.40;;
21148;SDS011;10732;51.472;6.466;2024-03-06T04:30:55;50.90;;;31.75;;
21148;SDS011;10732;51.472;6.466;2024-03-06T04:33:21;47.70;;;32.38;;
21148;SDS011;10732;51.472;6.466;2024-03-06T04:35:46;53.45;;;33.35;;
21148;SDS011;10732;51.472;6.466;2024-03-06T04:38:12;45.90;;;30.27;;
21148;SDS011;10732;51.472;6.466;2024-03-06T04:40:38;47.08;;;32.30;;
21148;SDS011;10732;51.472;6.466;2024-03-06T04:43:04;53.67;;;34.65;;
21148;SDS011;10732;51.472;6.466;2024-03-06T04:45:31;60.35;;;34.90;;
21148;SDS011;10732;51.472;6.466;2024-03-06T04:47:57;70.30;;;37.47;;
21148;SDS011;10732;51.472;6.466;2024-03-06T04:50:23;61.25;;;35.67;;
21148;SDS011;10732;51.472;6.466;2024-03-06T04:52:49;63.45;;;35.00;;
21148;SDS011;10732;51.472;6.466;2024-03-06T04:55:14;57.28;;;34.47;;
21148;SDS011;10732;51.472;6.466;2024-03-06T04:57:45;76.13;;;37.00;;
21148;SDS011;10732;51.472;6.466;2024-03-06T05:00:11;77.93;;;38.23;;
21148;SDS011;10732;51.472;6.466;2024-03-06T05:02:37;73.82;;;38.92;;
21148;SDS011;10732;51.472;6.466;2024-03-06T05:05:04;76.00;;;39.30;;
21148;SDS011;10732;51.472;6.466;2024-03-06T05:07:30;79.93;;;40.97;;
21148;SDS011;10732;51.472;6.466;2024-03-06T05:09:56;80.03;;;40.58;;
21148;SDS011;10732;51.472;6.466;2024-03-06T05:12:23;72.63;;;38.65;;
21148;SDS011;10732;51.472;6.466;2024-03-06T05:14:50;75.63;;;38.13;;
21148;SDS011;10732;51.472;6.466;2024-03-06T05:17:16;85.78;;;42.90;;
21148;SDS011;10732;51.472;6.466;2024-03-06T05:19:42;71.37;;;38.30;;
21148;SDS011;10732;51.472;6.466;2024-03-06T05:22:09;77.43;;;38.40;;
21148;SDS011;10732;51.472;6.466;2024-03-06T05:24:36;70.35;;;38.10;;
21148;SDS011;10732;51.472;6.466;2024-03-06T05:27:05;76.82;;;42.75;;
21148;SDS011;10732;51.472;6.466;2024-03-06T05:29:30;72.00;;;42.13;;
21148;SDS011;10732;51.472;6.466;2024-03-06T05:31:56;96.50;;;46.00;;
21148;SDS011;10732;51.472;6.466;2024-03-06T05:34:22;94.40;;;45.73;;
21148;SDS011;10732;51.472;6.466;2024-03-06T05:36:48;99.85;;;48.15;;
21148;SDS011;10732;51.472;6.466;2024-03-06T05:39:14;80.15;;;45.30;;
21148;SDS011;10732;51.472;6.466;2024-03-06T05:41:40;100.82;;;47.63;;
21148;SDS011;10732;51.472;6.466;2024-03-06T05:44:07;107.47;;;47.45;;
21148;SDS011;10732;51.472;6.466;2024-03-06T05:46:33;99.07;;;49.33;;
21148;SDS011;10732;51.472;6.466;2024-03-06T05:48:58;98.07;;;46.47;;
21148;SDS011;10732;51.472;6.466;2024-03-06T05:51:24;95.67;;;46.97;;
21148;SDS011;10732;51.472;6.466;2024-03-06T05:53:50;95.07;;;44.20;;
21148;SDS011;10732;51.472;6.466;2024-03-06T05:56:17;197.75;;;53.00;;
21148;SDS011;10732;51.472;6.466;2024-03-06T05:58:43;111.60;;;48.35;;
21148;SDS011;10732;51.472;6.466;2024-03-06T06:01:11;94.60;;;45.03;;
21148;SDS011;10732;51.472;6.466;2024-03-06T06:03:41;100.53;;;46.63;;
21148;SDS011;10732;51.472;6.466;2024-03-06T06:06:07;98.15;;;48.95;;
21148;SDS011;10732;51.472;6.466;2024-03-06T06:08:33;96.97;;;48.22;;
21148;SDS011;10732;51.472;6.466;2024-03-06T06:11:00;98.18;;;49.88;;
21148;SDS011;10732;51.472;6.466;2024-03-06T06:13:27;98.72;;;48.88;;
21148;SDS011;10732;51.472;6.466;2024-03-06T06:15:53;112.38;;;50.40;;
21148;SDS011;10732;51.472;6.466;2024-03-06T06:18:19;142.52;;;51.47;;
21148;SDS011;10732;51.472;6.466;2024-03-06T06:20:45;116.60;;;50.60;;
21148;SDS011;10732;51.472;6.466;2024-03-06T06:23:11;184.73;;;58.60;;
21148;SDS011;10732;51.472;6.466;2024-03-06T06:25:36;186.77;;;53.83;;
21148;SDS011;10732;51.472;6.466;2024-03-06T06:28:02;161.85;;;53.72;;
21148;SDS011;10732;51.472;6.466;2024-03-06T06:30:28;99.82;;;48.63;;
21148;SDS011;10732;51.472;6.466;2024-03-06T06:32:54;112.65;;;47.30;;
21148;SDS011;10732;51.472;6.466;2024-03-06T06:35:19;163.52;;;47.67;;
21148;SDS011;10732;51.472;6.466;2024-03-06T06:37:45;116.85;;;45.92;;
21148;SDS011;10732;51.472;6.466;2024-03-06T06:40:11;94.53;;;44.33;;
21148;SDS011;10732;51.472;6.466;2024-03-06T06:42:43;105.85;;;42.88;;
21148;SDS011;10732;51.472;6.466;2024-03-06T06:45:14;185.68;;;48.53;;
21148;SDS011;10732;51.472;6.466;2024-03-06T06:47:43;133.20;;;44.88;;
21148;SDS011;10732;51.472;6.466;2024-03-06T06:50:09;92.05;;;41.55;;
21148;SDS011;10732;51.472;6.466;2024-03-06T06:52:36;146.38;;;44.45;;
21148;SDS011;10732;51.472;6.466;2024-03-06T06:55:05;69.65;;;37.60;;
21148;SDS011;10732;51.472;6.466;2024-03-06T06:57:32;189.55;;;45.78;;
21148;SDS011;10732;51.472;6.466;2024-03-06T06:59:58;98.00;;;37.70;;
21148;SDS011;10732;51.472;6.466;2024-03-06T07:02:24;72.95;;;35.90;;
21148;SDS011;10732;51.472;6.466;2024-03-06T07:04:50;59.25;;;31.95;;
21148;SDS011;10732;51.472;6.466;2024-03-06T07:07:16;71.40;;;34.85;;
21148;SDS011;10732;51.472;6.466;2024-03-06T07:09:42;111.15;;;37.30;;
21148;SDS011;10732;51.472;6.466;2024-03-06T07:12:08;73.15;;;31.80;;
21148;SDS011;10732;51.472;6.466;2024-03-06T07:14:34;103.57;;;33.20;;
21148;SDS011;10732;51.472;6.466;2024-03-06T07:17:00;63.33;;;29.25;;
21148;SDS011;10732;51.472;6.466;2024-03-06T07:19:26;69.35;;;29.38;;
21148;SDS011;10732;51.472;6.466;2024-03-06T07:21:51;54.75;;;28.05;;
21148;SDS011;10732;51.472;6.466;2024-03-06T07:24:18;46.40;;;26.50;;
21148;SDS011;10732;51.472;6.466;2024-03-06T07:26:44;45.90;;;27.02;;
21148;SDS011;10732;51.472;6.466;2024-03-06T07:29:10;46.83;;;25.25;;
21148;SDS011;10732;51.472;6.466;2024-03-06T07:31:40;44.28;;;24.73;;
21148;SDS011;10732;51.472;6.466;2024-03-06T07:34:06;52.70;;;23.98;;
21148;SDS011;10732;51.472;6.466;2024-03-06T07:36:33;34.30;;;22.95;;
21148;SDS011;10732;51.472;6.466;2024-03-06T07:39:00;38.20;;;22.00;;
21148;SDS011;10732;51.472;6.466;2024-03-06T07:41:26;31.67;;;20.92;;
21148;SDS011;10732;51.472;6.466;2024-03-06T07:43:51;27.63;;;20.30;;
21148;SDS011;10732;51.472;6.466;2024-03-06T07:46:17;25.90;;;19.65;;
21148;SDS011;10732;51.472;6.466;2024-03-06T07:48:42;20.73;;;18.30;;
21148;SDS011;10732;51.472;6.466;2024-03-06T07:51:11;22.60;;;18.25;;
21148;SDS011;10732;51.472;6.466;2024-03-06T07:53:37;23.95;;;17.92;;
21148;SDS011;10732;51.472;6.466;2024-03-06T07:56:03;21.75;;;17.02;;
21148;SDS011;10732;51.472;6.466;2024-03-06T07:58:29;19.55;;;15.65;;
21148;SDS011;10732;51.472;6.466;2024-03-06T08:00:54;17.88;;;14.20;;
21148;SDS011;10732;51.472;6.466;2024-03-06T08:03:21;15.38;;;13.13;;
21148;SDS011;10732;51.472;6.466;2024-03-06T08:05:51;14.95;;;11.93;;
21148;SDS011;10732;51.472;6.466;2024-03-06T08:08:20;13.57;;;11.05;;
21148;SDS011;10732;51.472;6.466;2024-03-06T08:10:46;21.95;;;11.93;;
21148;SDS011;10732;51.472;6.466;2024-03-06T08:13:11;20.10;;;11.43;;
21148;SDS011;10732;51.472;6.466;2024-03-06T08:15:37;21.55;;;11.70;;
21148;SDS011;10732;51.472;6.466;2024-03-06T08:18:03;29.13;;;11.68;;
21148;SDS011;10732;51.472;6.466;2024-03-06T08:20:28;32.40;;;11.77;;
21148;SDS011;10732;51.472;6.466;2024-03-06T08:22:54;30.42;;;11.68;;
21148;SDS011;10732;51.472;6.466;2024-03-06T08:25:21;20.52;;;11.65;;
21148;SDS011;10732;51.472;6.466;2024-03-06T08:27:47;19.85;;;11.63;;
21148;SDS011;10732;51.472;6.466;2024-03-06T08:30:12;14.77;;;11.20;;
21148;SDS011;10732;51.472;6.466;2024-03-06T08:32:38;12.07;;;10.50;;
21148;SDS011;10732;51.472;6.466;2024-03-06T08:35:10;11.43;;;9.85;;
21148;SDS011;10732;51.472;6.466;2024-03-06T08:37:38;11.25;;;10.10;;
21148;SDS011;10732;51.472;6.466;2024-03-06T08:40:05;10.63;;;9.52;;
21148;SDS011;10732;51.472;6.466;2024-03-06T08:42:40;8.35;;;7.47;;
21148;SDS011;10732;51.472;6.466;2024-03-06T08:45:07;7.80;;;7.07;;
21148;SDS011;10732;51.472;6.466;2024-03-06T08:47:33;7.72;;;6.93;;
21148;SDS011;10732;51.472;6.466;2024-03-06T08:49:59;8.32;;;7.03;;
21148;SDS011;10732;51.472;6.466;2024-03-06T08:52:25;9.45;;;7.53;;
21148;SDS011;10732;51.472;6.466;2024-03-06T08:54:50;7.65;;;6.82;;
21148;SDS011;10732;51.472;6.466;2024-03-06T08:57:16;7.05;;;6.35;;
21148;SDS011;10732;51.472;6.466;2024-03-06T08:59:42;6.65;;;5.95;;
21148;SDS011;10732;51.472;6.466;2024-03-06T09:02:15;9.38;;;6.18;;
21148;SDS011;10732;51.472;6.466;2024-03-06T09:04:43;7.22;;;6.53;;
21148;SDS011;10732;51.472;6.466;2024-03-06T09:07:10;9.15;;;6.63;;
21148;SDS011;10732;51.472;6.466;2024-03-06T09:09:36;8.43;;;7.35;;
21148;SDS011;10732;51.472;6.466;2024-03-06T09:12:03;7.85;;;7.00;;
21148;SDS011;10732;51.472;6.466;2024-03-06T09:14:30;8.55;;;7.65;;
21148;SDS011;10732;51.472;6.466;2024-03-06T09:17:00;9.35;;;7.60;;
21148;SDS011;10732;51.472;6.466;2024-03-06T09:19:26;7.47;;;6.63;;
21148;SDS011;10732;51.472;6.466;2024-03-06T09:21:52;8.10;;;7.30;;
21148;SDS011;10732;51.472;6.466;2024-03-06T09:24:19;8.30;;;6.72;;
21148;SDS011;10732;51.472;6.466;2024-03-06T09:26:47;7.82;;;7.03;;
21148;SDS011;10732;51.472;6.466;2024-03-06T09:29:13;9.68;;;6.97;;
21148;SDS011;10732;51.472;6.466;2024-03-06T09:31:39;10.18;;;6.75;;
21148;SDS011;10732;51.472;6.466;2024-03-06T09:34:04;8.60;;;6.70;;
21148;SDS011;10732;51.472;6.466;2024-03-06T09:36:30;7.75;;;6.60;;
21148;SDS011;10732;51.472;6.466;2024-03-06T09:38:58;7.22;;;6.53;;
21148;SDS011;10732;51.472;6.466;2024-03-06T09:41:23;8.80;;;7.90;;
21148;SDS011;10732;51.472;6.466;2024-03-06T09:43:49;10.60;;;8.75;;
21148;SDS011;10732;51.472;6.466;2024-03-06T09:46:15;11.60;;;8.07;;
21148;SDS011;10732;51.472;6.466;2024-03-06T09:48:45;9.90;;;8.88;;
21148;SDS011;10732;51.472;6.466;2024-03-06T09:51:13;11.02;;;9.93;;
21148;SDS011;10732;51.472;6.466;2024-03-06T09:53:39;10.23;;;9.23;;
21148;SDS011;10732;51.472;6.466;2024-03-06T09:56:07;11.98;;;10.10;;
21148;SDS011;10732;51.472;6.466;2024-03-06T09:58:35;13.13;;;10.43;;
21148;SDS011;10732;51.472;6.466;2024-03-06T10:01:01;10.68;;;9.55;;
21148;SDS011;10732;51.472;6.466;2024-03-06T10:03:32;11.18;;;10.07;;
21148;SDS011;10732;51.472;6.466;2024-03-06T10:05:58;10.48;;;9.45;;
21148;SDS011;10732;51.472;6.466;2024-03-06T10:08:24;10.25;;;9.20;;
21148;SDS011;10732;51.472;6.466;2024-03-06T10:10:51;12.05;;;10.05;;
21148;SDS011;10732;51.472;6.466;2024-03-06T10:13:17;12.40;;;10.60;;
21148;SDS011;10732;51.472;6.466;2024-03-06T10:15:56;11.98;;;10.05;;
21148;SDS011;10732;51.472;6.466;2024-03-06T10:18:26;13.02;;;9.63;;
21148;SDS011;10732;51.472;6.466;2024-03-06T10:20:53;10.55;;;9.23;;
21148;SDS011;10732;51.472;6.466;2024-03-06T10:23:18;12.45;;;9.07;;
21148;SDS011;10732;51.472;6.466;2024-03-06T10:25:45;11.70;;;8.77;;
21148;SDS011;10732;51.472;6.466;2024-03-06T10:28:15;10.65;;;8.35;;
21148;SDS011;10732;51.472;6.466;2024-03-06T10:30:42;9.50;;;8.55;;
21148;SDS011;10732;51.472;6.466;2024-03-06T10:33:08;9.90;;;8.90;;
21148;SDS011;10732;51.472;6.466;2024-03-06T10:35:34;8.77;;;7.70;;
21148;SDS011;10732;51.472;6.466;2024-03-06T10:38:04;9.10;;;7.85;;
21148;SDS011;10732;51.472;6.466;2024-03-06T10:40:31;8.75;;;7.95;;
21148;SDS011;10732;51.472;6.466;2024-03-06T10:42:59;9.43;;;8.52;;
21148;SDS011;10732;51.472;6.466;2024-03-06T10:45:30;10.10;;;8.32;;
21148;SDS011;10732;51.472;6.466;2024-03-06T10:48:14;8.45;;;7.55;;
21148;SDS011;10732;51.472;6.466;2024-03-06T10:50:42;11.18;;;8.43;;
21148;SDS011;10732;51.472;6.466;2024-03-06T10:53:09;9.13;;;8.10;;
21148;SDS011;10732;51.472;6.466;2024-03-06T10:55:36;9.30;;;8.15;;
21148;SDS011;10732;51.472;6.466;2024-03-06T10:58:06;9.30;;;8.00;;
21148;SDS011;10732;51.472;6.466;2024-03-06T11:00:45;8.93;;;7.82;;
21148;SDS011;10732;51.472;6.466;2024-03-06T11:03:12;8.32;;;7.53;;
21148;SDS011;10732;51.472;6.466;2024-03-06T11:05:39;8.70;;;7.80;;
21148;SDS011;10732;51.472;6.466;2024-03-06T11:08:08;8.98;;;8.07;;
21148;SDS011;10732;51.472;6.466;2024-03-06T11:10:36;9.77;;;8.77;;
21148;SDS011;10732;51.472;6.466;2024-03-06T11:13:03;9.05;;;8.15;;
21148;SDS011;10732;51.472;6.466;2024-03-06T11:15:33;10.40;;;9.38;;
21148;SDS011;10732;51.472;6.466;2024-03-06T11:17:59;11.55;;;9.38;;
21148;SDS011;10732;51.472;6.466;2024-03-06T11:20:53;12.70;;;10.05;;
21148;SDS011;10732;51.472;6.466;2024-03-06T11:26:41;14.40;;;10.15;;
21148;SDS011;10732;51.472;6.466;2024-03-06T11:29:08;13.80;;;10.60;;
21148;SDS011;10732;51.472;6.466;2024-03-06T11:31:34;14.73;;;11.52;;
21148;SDS011;10732;51.472;6.466;2024-03-06T11:34:02;14.25;;;11.23;;
21148;SDS011;10732;51.472;6.466;2024-03-06T11:36:29;13.45;;;11.75;;
21148;SDS011;10732;51.472;6.466;2024-03-06T11:41:29;13.13;;;10.98;;
21148;SDS011;10732;51.472;6.466;2024-03-06T11:43:56;13.95;;;11.52;;
21148;SDS011;10732;51.472;6.466;2024-03-06T11:49:26;15.38;;;11.93;;
21148;SDS011;10732;51.472;6.466;2024-03-06T11:52:11;13.35;;;11.93;;
21148;SDS011;10732;51.472;6.466;2024-03-06T11:54:37;14.25;;;12.18;;
21148;SDS011;10732;51.472;6.466;2024-03-06T11:57:04;13.48;;;12.05;;
21148;SDS011;10732;51.472;6.466;2024-03-06T11:59:33;16.13;;;12.60;;
21148;SDS011;10732;51.472;6.466;2024-03-06T12:02:04;17.05;;;12.70;;
21148;SDS011;10732;51.472;6.466;2024-03-06T12:04:30;14.85;;;12.18;;
21148;SDS011;10732;51.472;6.466;2024-03-06T12:06:58;16.63;;;13.00;;
21148;SDS011;10732;51.472;6.466;2024-03-06T12:09:25;18.13;;;13.55;;
21148;SDS011;10732;51.472;6.466;2024-03-06T12:11:51;16.30;;;12.95;;
21148;SDS011;10732;51.472;6.466;2024-03-06T12:14:18;16.15;;;12.82;;
21148;SDS011;10732;51.472;6.466;2024-03-06T12:16:54;15.07;;;12.10;;
21148;SDS011;10732;51.472;6.466;2024-03-06T12:19:20;15.23;;;10.50;;
21148;SDS011;10732;51.472;6.466;2024-03-06T12:21:47;11.68;;;9.45;;
21148;SDS011;10732;51.472;6.466;2024-03-06T12:24:15;10.45;;;9.35;;
21148;SDS011;10732;51.472;6.466;2024-03-06T12:26:41;10.65;;;9.52;;
21148;SDS011;10732;51.472;6.466;2024-03-06T12:29:07;11.52;;;9.82;;
21148;SDS011;10732;51.472;6.466;2024-03-06T12:31:35;15.13;;;10.55;;
21148;SDS011;10732;51.472;6.466;2024-03-06T12:34:02;13.05;;;10.85;;
21148;SDS011;10732;51.472;6.466;2024-03-06T12:36:28;12.57;;;11.27;;
21148;SDS011;10732;51.472;6.466;2024-03-06T12:39:04;13.10;;;11.23;;
21148;SDS011;10732;51.472;6.466;2024-03-06T12:41:37;15.82;;;12.27;;
21148;SDS011;10732;51.472;6.466;2024-03-06T12:44:06;17.77;;;14.82;;
21148;SDS011;10732;51.472;6.466;2024-03-06T12:46:32;17.15;;;14.48;;
21148;SDS011;10732;51.472;6.466;2024-03-06T12:48:58;17.42;;;14.52;;
21148;SDS011;10732;51.472;6.466;2024-03-06T12:51:23;18.13;;;15.15;;
21148;SDS011;10732;51.472;6.466;2024-03-06T12:53:49;16.88;;;14.93;;
21148;SDS011;10732;51.472;6.466;2024-03-06T12:56:15;18.95;;;15.50;;
21148;SDS011;10732;51.472;6.466;2024-03-06T12:58:41;18.13;;;15.23;;
21148;SDS011;10732;51.472;6.466;2024-03-06T13:01:07;17.25;;;15.05;;
21148;SDS011;10732;51.472;6.466;2024-03-06T13:03:32;16.65;;;14.77;;
21148;SDS011;10732;51.472;6.466;2024-03-06T13:05:58;19.88;;;16.50;;
21148;SDS011;10732;51.472;6.466;2024-03-06T13:08:24;18.48;;;15.38;;
21148;SDS011;10732;51.472;6.466;2024-03-06T13:10:50;18.38;;;15.68;;
21148;SDS011;10732;51.472;6.466;2024-03-06T13:13:15;18.52;;;15.77;;
21148;SDS011;10732;51.472;6.466;2024-03-06T13:15:41;18.80;;;16.08;;
21148;SDS011;10732;51.472;6.466;2024-03-06T13:18:07;20.25;;;16.42;;
21148;SDS011;10732;51.472;6.466;2024-03-06T13:20:33;19.88;;;16.48;;
21148;SDS011;10732;51.472;6.466;2024-03-06T13:22:59;20.80;;;17.52;;
21148;SDS011;10732;51.472;6.466;2024-03-06T13:25:25;21.90;;;18.08;;
21148;SDS011;10732;51.472;6.466;2024-03-06T13:27:51;22.10;;;18.92;;
21148;SDS011;10732;51.472;6.466;2024-03-06T13:30:20;27.58;;;22.05;;
21148;SDS011;10732;51.472;6.466;2024-03-06T13:32:45;29.40;;;24.15;;
21148;SDS011;10732;51.472;6.466;2024-03-06T13:35:11;34.40;;;27.15;;
21148;SDS011;10732;51.472;6.466;2024-03-06T13:37:41;33.78;;;26.60;;
21148;SDS011;10732;51.472;6.466;2024-03-06T13:40:08;36.58;;;27.80;;
21148;SDS011;10732;51.472;6.466;2024-03-06T13:42:35;36.35;;;28.88;;
21148;SDS011;10732;51.472;6.466;2024-03-06T13:45:01;37.95;;;29.23;;
21148;SDS011;10732;51.472;6.466;2024-03-06T13:47:36;36.60;;;29.00;;
21148;SDS011;10732;51.472;6.466;2024-03-06T13:50:09;36.45;;;30.30;;
21148;SDS011;10732;51.472;6.466;2024-03-06T13:52:42;37.25;;;30.40;;
21148;SDS011;10732;51.472;6.466;2024-03-06T13:55:08;40.17;;;32.15;;
21148;SDS011;10732;51.472;6.466;2024-03-06T13:57:35;37.90;;;32.10;;
21148;SDS011;10732;51.472;6.466;2024-03-06T14:00:02;40.15;;;32.60;;
21148;SDS011;10732;51.472;6.466;2024-03-06T14:02:32;42.78;;;33.13;;
21148;SDS011;10732;51.472;6.466;2024-03-06T14:04:58;42.33;;;31.27;;
21148;SDS011;10732;51.472;6.466;2024-03-06T14:07:23;43.60;;;33.85;;
21148;SDS011;10732;51.472;6.466;2024-03-06T14:09:49;44.47;;;32.60;;
21148;SDS011;10732;51.472;6.466;2024-03-06T14:12:16;46.40;;;33.70;;
21148;SDS011;10732;51.472;6.466;2024-03-06T14:14:42;42.13;;;31.98;;
21148;SDS011;10732;51.472;6.466;2024-03-06T14:17:07;41.20;;;31.05;;
21148;SDS011;10732;51.472;6.466;2024-03-06T14:19:33;39.60;;;30.58;;
21148;SDS011;10732;51.472;6.466;2024-03-06T14:21:59;39.08;;;29.98;;
21148;SDS011;10732;51.472;6.466;2024-03-06T14:24:25;40.10;;;30.00;;
21148;SDS011;10732;51.472;6.466;2024-03-06T14:26:50;42.72;;;30.33;;
21148;SDS011;10732;51.472;6.466;2024-03-06T14:29:16;38.30;;;29.52;;